Tiempo atmosférico en la estación meteorológica de Cáceres, Cáceres (405 m.)



Fecha
DESCASC
Temp. máxima en grados centígrados (hora)
DESCASC
Temp. mínima en grados centígrados (hora)
DESCASC
Temp. media en grados centígrados
DESCASC
Racha de viento máxima en m/sg (hora)
DESCASC
Velocidad máxima media en intervalos de 10 minutos(hora)
DESCASC
Precipitaciones diarias en mm
DESCASC
Precipitaciones de 00:00 a 06:00 en mm
DESCASC
Precipitaciones de 06:00 a 12:00 en mm
DESCASC
Precipitaciones de 12:00 a 18:00 en mm
DESCASC
Precipitaciones de 18:00 a 24:00 en mm
DESCASC
22-04-2019 21.6 (15:30) 6.7 (07:30) 14.2 11.11 (17:50) 5.83 (17:50) 0 0 0 0 0
21-04-2019 19.3 (15:30) 8.9 (06:00) 14.1 10.83 (01:00) 6.11 (00:20) 0 0 0 0 0
20-04-2019 22.9 (16:20) 9.3 (04:00) 16.1 13.33 (14:10) 8.06 (14:30) 3.4 0.8 2.6 0 0
19-04-2019 18.5 (15:10) 8.7 (07:50) 13.6 11.11 (18:40) 6.39 (18:10) 0.2 0 0 0 0.2
18-04-2019 16.1 (18:00) 10.1 (00:00) 13.1 10.83 (00:20) 6.94 (04:10) 0 0 0 0 0
17-04-2019 20.2 (16:20) 8.7 (00:00) 14.5 13.61 (15:30) 7.5 (15:40) 1.6 0 0 0 1.6
16-04-2019 23 (18:40) 5.7 (00:00) 14.3 9.72 (23:30) 5.83 (16:10) 0 0 0 0 0
15-04-2019 20.3 (13:20) 12.9 (00:00) 16.6 12.78 (15:30) 7.5 (15:30) 0 0 0 0 0
14-04-2019 23 (18:20) 13.1 (00:00) 18.1 8.33 (05:20) 5.56 (05:00) 0 0 0 0 0
13-04-2019 22.8 (18:30) 10.3 (00:00) 16.5 8.61 (19:10) 5 (19:10) 0 0 0 0 0
12-04-2019 20.8 (18:50) 3.7 (00:00) 12.2 7.78 (16:40) 3.89 (23:10) 0 0 0 0 0
11-04-2019 19 (18:50) 5.6 (00:00) 12.3 8.33 (17:10) 4.72 (17:50) 0 0 0 0 0
10-04-2019 17.4 (18:50) 7.1 (00:00) 12.2 11.94 (15:40) 7.22 (15:20) 0 0 0 0 0
09-04-2019 15.7 (16:20) 7.6 (00:00) 11.6 13.33 (17:50) 7.22 (20:00) 0.8 0 0.4 0.4 0
08-04-2019 17.4 (16:30) 9.1 (00:00) 13.3 11.67 (18:00) 6.67 (19:50) 7.8 5 0.2 1.2 1.4
07-04-2019 12.1 (13:10) 7.6 (00:00) 9.9 10 (05:00) 6.39 (05:00) 1.8 0 0 0.4 1.4
06-04-2019 10.8 (18:50) 5.7 (00:00) 8.3 13.89 (09:10) 7.22 (11:10) 5.8 0 0.8 4.8 0.2
05-04-2019 12.1 (16:30) 3.7 (00:00) 7.9 14.44 (18:00) 8.33 (18:10) 4 1.8 2 0 0.2
04-04-2019 16.1 (18:50) 2.5 (00:00) 9.3 10.83 (01:00) 6.39 (01:00) 1 0 0 0 1
03-04-2019 16.9 (16:50) 7.1 (00:00) 12 11.39 (19:10) 6.67 (18:00) 0 0 0 0 0
02-04-2019 21.5 (17:50) 7.3 (00:00) 14.4 8.06 (21:30) 5.83 (22:10) 0 0 0 0 0
01-04-2019 17.7 (19:20) 10.5 (00:00) 14.1 7.78 (19:30) 5.83 (19:40) 2.2 0 0.6 1.6 0
31-03-2019 20.3 (15:10) 8.3 (00:00) 14.3 8.89 (16:10) 6.39 (16:00) 0 0 0 0 0
30-03-2019 21.7 (17:10) 5.6 (00:00) 13.7 10.83 (17:20) 6.11 (23:30) 0 0 0 0 0
29-03-2019 21 (17:50) 4.4 (00:00) 12.7 8.33 (15:20) 5 (13:10) 0 0 0 0 0
28-03-2019 22.5 (17:50) 4.4 (00:00) 13.5 10.83 (14:50) 5.83 (15:00) 0 0 0 0 0
27-03-2019 21 (17:50) 7.2 (00:00) 14.1 10 (12:10) 6.67 (12:00) 0 0 0 0 0
26-03-2019 22.8 (17:40) 7.5 (00:00) 15.1 11.39 (11:50) 6.39 (11:50) 0 0 0 0 0
25-03-2019 23.6 (17:40) 6.8 (00:00) 15.2 9.72 (15:20) 5.83 (15:10) 0 0 0 0 0

Gráficas

Temp. máximas Temp. mínimas Temp. medias Precipitaciones Rachas de viento máximas Velocidades máximas media en intervalos de 10 minutos

Datos horarios

Fecha y hora oficial Temperatura (ºC) Velocidad del viento (km/h) Dirección del viento Racha (km/h) Dirección de racha Precipitación (mm) Presión (hPa) Tendencia (hPa) Humedad (%)
2019-04-23 23:00:00 7.4 10 Sudoeste 27 Sudoeste 0 959.1 2.4 76
2019-04-23 22:00:00 8.3 17 Sudoeste 31 Sudoeste 0 958.5 2.2 72
2019-04-23 21:00:00 8.5 20 Sudoeste 39 Sudoeste 0 957.6 2 67
2019-04-23 20:00:00 10.6 18 Oeste 48 Sudoeste 0 956.7 1.3 59
2019-04-23 19:00:00 11 18 Oeste 49 Sudoeste 0 956.3 1.4 57
2019-04-23 18:00:00 12.4 22 Oeste 42 Oeste 0 955.6 0.4 52
2019-04-23 17:00:00 11.7 21 Oeste 45 Oeste 0 955.4 0.6 57
2019-04-23 16:00:00 12.1 22 Sudoeste 41 Sudoeste 0 954.9 0 62
2019-04-23 15:00:00 8.5 21 Oeste 49 Oeste 0.4 955.2 0.5 77
2019-04-23 14:00:00 9.6 23 Oeste 50 Oeste 0.2 954.8 0.6 77
2019-04-23 13:00:00 8.7 18 Oeste 34 Oeste 1 954.9 1.3 84
2019-04-23 12:00:00 9.3 21 Sudoeste 39 Oeste 0 954.7 1.1 76
2019-04-23 11:00:00 8.8 22 Sudoeste 42 Oeste 0 954.2 1 78
2019-04-23 10:00:00 8.3 16 Sudoeste 35 Sudoeste 0 953.6 0.7 84
2019-04-23 09:00:00 7 12 Sudoeste 28 Sudoeste 0 953.6 0.6 89
2019-04-23 08:00:00 7 15 Sudoeste 32 Oeste 0 953.2 0.4 88
2019-04-23 07:00:00 7.6 13 Oeste 26 Noroeste 0.2 952.9 0 90
2019-04-23 06:00:00 8 14 Oeste 31 Sudoeste 0.4 953 -0.3 90
2019-04-23 05:00:00 8.6 13 Sudoeste 25 Oeste 1.4 952.8 -0.5 93
2019-04-23 04:00:00 8.9 13 Oeste 24 Oeste 1.6 952.9 -0.6 90
2019-04-23 03:00:00 9.2 13 Oeste 43 Oeste 1.2 953.3 -0.3 91
2019-04-23 02:00:00 12.3 8 Sudoeste 28 Oeste 0 953.3 -0.6 78
2019-04-23 01:00:00 12.6 13 Sudoeste 39 Sudoeste 0 953.5 -0.3 76
2019-04-23 00:00:00 14.6 10 Sudoeste 37 Oeste 0 953.6 -0.2 71
2019-04-22 23:00:00 15.1 9 Sudoeste 29 Sudoeste 0 953.9 -0.1 65
2019-04-22 22:00:00 16.4 14 Sudoeste 26 Sudoeste 0 953.8 -0.5 50
2019-04-22 21:00:00 16.9 12 Sudoeste 31 Oeste 0 953.8 -0.8 53
2019-04-22 20:00:00 18.2 21 Sudoeste 36 Sudoeste 0 954 -1 45
2019-04-22 19:00:00 19.2 19 Oeste 35 Sudoeste 0 954.3 -1.2 41
2019-04-22 18:00:00 20 19 Sudoeste 40 Sudoeste 0 954.6 -1.8 43
2019-04-22 17:00:00 20.2 15 Sudoeste 29 Sudoeste 0 955 -2.2 41
2019-04-22 16:00:00 20.1 10 Sudoeste 27 Sudoeste 0 955.5 -2.6 40
2019-04-22 15:00:00 19.9 8 Sudoeste 24 Sudoeste 0 956.4 -2.5 44
2019-04-22 14:00:00 19.3 11 Sudoeste 22 Sudoeste 0 957.2 -2.1 46
2019-04-22 13:00:00 18.7 8 Oeste 18 Sur 0 958.1 -1.4 44
2019-04-22 12:00:00 17.4 5 Norte 14 Sudoeste 0 958.9 -0.7 50
2019-04-22 11:00:00 15.6 4 Norte 9 Este 0 959.3 0 59
2019-04-22 10:00:00 12.9 3 Este 9 Este 0 959.5 0.3 71
2019-04-22 09:00:00 9.5 0 Calma 6 Sudoeste 0 959.6 -0.1 86
2019-04-22 08:00:00 7 5 Sudoeste 7 Sudoeste 0 959.3 -1.2 91
2019-04-22 07:00:00 7.5 4 Sudoeste 8 Sudoeste 0 959.2 -1.8 87
2019-04-22 06:00:00 7.7 5 Sur 8 Sudoeste 0 959.7 -2 88
2019-04-22 05:00:00 8.9 4 Sudoeste 8 Sudoeste 0 960.5 -2 84
2019-04-22 04:00:00 10 3 Sur 5 Sur 0 961 -1.9 80
2019-04-22 03:00:00 11.7 4 Sudeste 6 Sur 0 961.7 -1.3 72
2019-04-22 02:00:00 12.1 3 Sur 10 Sudeste 0 962.5 -0.7 72
2019-04-22 01:00:00 12.1 6 Este 11 Este 0 962.9 -0.1 70
2019-04-22 00:00:00 12.7 7 Sudeste 10 Sudeste 0 963 0.2 64
2019-04-21 23:00:00 13.5 5 Este 9 Este 0 963.2 0.6 63
2019-04-21 22:00:00 14.3 3 Sur 13 Este 0 963 0.4 61
2019-04-21 21:00:00 15.5 9 Este 22 Este 0 962.8 0 53
2019-04-21 20:00:00 16.7 14 Este 24 Este 0 962.6 -0.8 47
2019-04-21 19:00:00 17.9 13 Este 24 Nordeste 0 962.6 -1.3 43
2019-04-21 18:00:00 18.8 11 Este 27 Nordeste 0 962.8 -1.5 41
2019-04-21 17:00:00 18.4 14 Nordeste 27 Nordeste 0 963.4 -1.5 42
2019-04-21 16:00:00 19 17 Nordeste 33 Nordeste 0 963.9 -1.8 39
2019-04-21 15:00:00 17.9 12 Nordeste 26 Este 0 964.3 -1.8 45
2019-04-21 14:00:00 18.2 14 Este 28 Norte 0 964.9 -1.6 43
2019-04-21 13:00:00 17.4 14 Norte 28 Nordeste 0 965.7 -1.2 46
2019-04-21 12:00:00 16.2 13 Nordeste 24 Nordeste 0 966.1 -1 50
2019-04-21 11:00:00 15.2 11 Nordeste 25 Este 0 966.5 -0.6 52
2019-04-21 10:00:00 13.5 8 Este 19 Este 0 966.9 -0.2 61
2019-04-21 09:00:00 11.6 12 Este 23 Nordeste 0 967.1 -0.4 67
2019-04-21 08:00:00 10.8 11 Este 31 Nordeste 0 967.1 -1 72
2019-04-21 07:00:00 10 12 Sudeste 28 Este 0 967.1 -1.5 76
2019-04-21 06:00:00 9 10 Sudeste 20 Este 0 967.5 -1.8 81
2019-04-21 05:00:00 10.4 14 Sudeste 19 Sudeste 0 968.1 -1.6 75
2019-04-21 04:00:00 11 9 Este 19 Este 0 968.6 -1 79
2019-04-21 03:00:00 10.7 4 Este 12 Este 0 969.3 -0.3 78
2019-04-21 02:00:00 11.2 9 Nordeste 33 Sudeste 0 969.7 0.1 73
2019-04-21 01:00:00 13.5 21 Sudeste 39 Sudeste 0 969.6 0.6 59
2019-04-21 00:00:00 13.9 23 Sudeste 40 Sudeste 0 969.6 1 61
2019-04-20 23:00:00 13.9 18 Sudeste 28 Sur 0 969.6 1.7 62
2019-04-20 22:00:00 14.8 21 Sur 33 Sur 0 969 1.2 61
2019-04-20 21:00:00 17.3 21 Sudeste 31 Sudeste 0 968.6 0.5 55
2019-04-20 20:00:00 20.2 14 Sudeste 33 Este 0 967.9 -0.4 44
2019-04-20 19:00:00 22.4 23 Este 38 Este 0 967.8 -1.2 35
2019-04-20 18:00:00 22.4 21 Este 43 Este 0 968.1 -1.4 34
2019-04-20 17:00:00 22.8 20 Este 44 Este 0 968.3 -1.8 32
2019-04-20 16:00:00 22.3 19 Nordeste 38 Nordeste 0 969 -0.9 31
2019-04-20 15:00:00 21.3 21 Este 48 Este 0 969.5 -0.6 38
2019-04-20 14:00:00 19.7 23 Nordeste 37 Nordeste 0 970.1 -0.3 43
2019-04-20 13:00:00 19.1 18 Nordeste 38 Nordeste 0 969.9 -0.6 47
2019-04-20 12:00:00 18 18 Nordeste 30 Este 0 970.1 -0.3 52
2019-04-20 11:00:00 14.8 13 Nordeste 23 Nordeste 0 970.4 0.4 71
2019-04-20 10:00:00 11.6 5 Norte 17 Nordeste 0 970.5 0.3 84
2019-04-20 09:00:00 10.1 4 Norte 12 Norte 0 970.4 -0.4 95
2019-04-20 08:00:00 10 2 Norte 8 Noroeste 0.8 970 -0.7 96
2019-04-20 07:00:00 10 4 Sur 8 Nordeste 1.8 970.2 -1.3 95
2019-04-20 06:00:00 9.8 6 Nordeste 14 Norte 0.8 970.8 -0.9 95
2019-04-20 05:00:00 9.7 5 Norte 11 Nordeste 0 970.7 -1.4 93
2019-04-20 04:00:00 9.3 3 Noroeste 7 Norte 0 971.5 -0.7 92
2019-04-20 03:00:00 10.1 0 Calma 9 Este 0 971.7 -0.5 90
2019-04-20 02:00:00 10.5 7 Sudeste 11 Nordeste 0 972.1 0.2 89
2019-04-20 01:00:00 11.6 4 Nordeste 9 Este 0 972.2 0.8 85
2019-04-20 00:00:00 11.6 7 Sudeste 14 Sudeste 0 972.2 1.8 83
2019-04-19 23:00:00 11.6 5 Sudeste 21 Nordeste 0.2 971.9 2.3 85
2019-04-19 22:00:00 13.1 12 Nordeste 19 Este 0 971.4 2.3 74
2019-04-19 21:00:00 14.1 12 Nordeste 29 Este 0 970.4 1.7 66
2019-04-19 20:00:00 14.8 17 Nordeste 35 Este 0 969.6 0.8 62
2019-04-19 19:00:00 15.5 19 Nordeste 40 Nordeste 0 969.1 -0.1 58
2019-04-19 18:00:00 17.1 21 Nordeste 38 Este 0 968.7 0 52
2019-04-19 17:00:00 15.7 21 Este 35 Este 0 968.8 -0.4 66
2019-04-19 16:00:00 15.4 17 Nordeste 33 Este 0 969.2 -0.5 62
2019-04-19 15:00:00 18.1 4 Sur 14 Sudeste 0 968.7 -0.7 52
2019-04-19 14:00:00 16.1 8 Sudoeste 20 Este 0 969.2 0.2 61
2019-04-19 13:00:00 14.8 11 Este 19 Este 0 969.7 1.1 69
2019-04-19 12:00:00 14 9 Sudeste 23 Sudeste 0 969.4 1.2 75
2019-04-19 11:00:00 12.9 16 Este 25 Este 0 969 1.3 78
2019-04-19 10:00:00 11.2 9 Este 15 Este 0 968.6 1.5 86
2019-04-19 09:00:00 10 4 Sudeste 6 Este 0 968.2 1.2 91
2019-04-19 08:00:00 8.8 0 Calma 8 Sudoeste 0 967.7 0.5 91
2019-04-19 07:00:00 9.3 5 Oeste 8 Sudoeste 0 967.1 -0.3 90
2019-04-19 06:00:00 8.8 3 Sudoeste 8 Sudoeste 0 967 -0.5 89
2019-04-19 05:00:00 9.5 4 Sudoeste 13 Sudoeste 0 967.2 -0.4 87
2019-04-19 04:00:00 9.9 6 Oeste 15 Sudoeste 0 967.4 -0.6 86
2019-04-19 03:00:00 10 6 Sudoeste 24 Sudoeste 0 967.5 -0.6 84
2019-04-19 02:00:00 10.8 17 Sudoeste 24 Sudoeste 0 967.6 -0.3 81
2019-04-19 01:00:00 11 6 Oeste 14 Sudoeste 0 968 0.9 82
2019-04-19 00:00:00 10.9 4 Sudoeste 10 Sur 0 968.1 1.5 88
2019-04-18 23:00:00 11.4 2 Sudoeste 14 Sudoeste 0 967.9 1.6 81
2019-04-18 22:00:00 11.4 8 Sur 11 Este 0 967.1 1.2 82
2019-04-18 21:00:00 13 8 Este 24 Nordeste 0 966.6 1.2 74
2019-04-18 20:00:00 14.9 11 Norte 21 Norte 0 966.3 0.6 66
2019-04-18 19:00:00 15.4 12 Nordeste 18 Nordeste 0 965.9 -0.2 65
2019-04-18 18:00:00 16.1 3 Sur 12 Sur 0 965.4 -0.9 58
2019-04-18 17:00:00 15.1 9 Sur 18 Sudeste 0 965.7 -0.7 68
2019-04-18 16:00:00 15.1 13 Sur 19 Sur 0 966.1 -1.1 69
2019-04-18 15:00:00 14.5 9 Sudeste 13 Sudeste 0 966.3 -1 74
2019-04-18 14:00:00 13.6 8 Sudeste 14 Sudeste 0 966.4 -1.2 75
2019-04-18 13:00:00 12.3 12 Sudeste 17 Sudeste 0 967.2 0 80
2019-04-18 12:00:00 13.7 6 Noroeste 13 Nordeste 0 967.3 0 73
2019-04-18 11:00:00 12.3 8 Sur 14 Sur 0 967.6 1 81
2019-04-18 10:00:00 12.1 6 Sudeste 12 Sur 0 967.2 0.8 84
2019-04-18 09:00:00 11.6 10 Sudeste 16 Sur 0 967.3 0.9 85
2019-04-18 08:00:00 10.3 0 Calma 9 Sudeste 0 966.6 0.2 92
2019-04-18 07:00:00 10.2 6 Sudeste 15 Sur 0 966.4 0.3 91
2019-04-18 06:00:00 10.4 10 Sur 25 Sudoeste 0 966.4 -0.8 87
2019-04-18 05:00:00 10.3 15 Sur 35 Sudoeste 0 966.4 -1.2 90
2019-04-18 04:00:00 10.4 22 Sudoeste 38 Sudoeste 0 966.1 -1.2 88
2019-04-18 03:00:00 10.5 14 Sur 35 Sur 0 967.2 0.3 89
2019-04-18 02:00:00 10.8 17 Sur 33 Sur 0 967.6 1.1 87
2019-04-18 01:00:00 10.9 13 Sur 39 Sudoeste 0 967.3 1.9 87
2019-04-18 00:00:00 11.3 18 Sur 35 Sudoeste 0 966.9 2.4 83
2019-04-17 23:00:00 11.6 16 Sur 34 Sur 0 966.5 2.1 81
2019-04-17 22:00:00 11.7 21 Sur 31 Sur 0 965.4 1.4 87
2019-04-17 21:00:00 11.5 14 Sur 28 Sur 0.2 964.5 0.9 88
2019-04-17 20:00:00 11.4 15 Sur 27 Sur 1 964.4 1.5 88
2019-04-17 19:00:00 11.9 14 Sur 36 Sudoeste 0.4 964 1.2 87
2019-04-17 18:00:00 13.6 24 Sudoeste 44 Oeste 0 963.6 0.1 74
2019-04-17 17:00:00 18.3 23 Sur 46 Sudoeste 0 962.9 -1 60
2019-04-17 16:00:00 20.1 25 Sudeste 49 Sur 0 962.8 -1.8 45
2019-04-17 15:00:00 19.4 22 Sudeste 45 Sudeste 0 963.5 -1.5 45
2019-04-17 14:00:00 18.7 23 Sudeste 43 Sur 0 963.9 -1.4 48
2019-04-17 13:00:00 17.9 19 Sudeste 30 Sudeste 0 964.6 -0.6 46
2019-04-17 12:00:00 17.7 15 Sudeste 27 Sudeste 0 965 -0.2 46
2019-04-17 11:00:00 15.7 13 Sudeste 22 Sudeste 0 965.3 0.4 56
2019-04-17 10:00:00 12.9 6 Este 9 Este 0 965.2 0.4 67
2019-04-17 09:00:00 10.4 5 Este 10 Sudoeste 0 965.2 0.2 77
2019-04-17 08:00:00 9 3 Sudoeste 13 Sur 0 964.9 0.1 75
2019-04-17 07:00:00 11.3 11 Sur 19 Sudoeste 0 964.8 -0.1 64
2019-04-17 06:00:00 12.8 12 Sudoeste 22 Sur 0 965 -0.5 59
2019-04-17 05:00:00 14.7 14 Sudeste 23 Sur 0 964.8 -1.2 52
2019-04-17 04:00:00 15 17 Sudeste 24 Sudeste 0 964.9 -1 49
2019-04-17 03:00:00 15.7 14 Sur 27 Sur 0 965.5 -1.1 46
2019-04-17 02:00:00 16.6 14 Sur 26 Sur 0 966 -0.2 39
2019-04-17 01:00:00 15.6 10 Sudeste 23 Sur 0 965.9 0 43
2019-04-17 00:00:00 18.2 14 Sudoeste 35 Sur 0 966.6 0.7 36
2019-04-16 23:00:00 18.8 17 Sur 29 Sur 0 966.2 0.2 35
2019-04-16 22:00:00 17.7 12 Sudeste 18 Sudeste 0 965.9 -0.7 42
2019-04-16 21:00:00 18.3 8 Sudeste 18 Este 0 965.9 -1.3 42
2019-04-16 20:00:00 21.8 10 Este 25 Sudeste 0 966 -2.2 33
2019-04-16 19:00:00 22.8 17 Sudeste 32 Sudeste 0 966.6 -2.6 30
2019-04-16 18:00:00 22.8 14 Sudeste 33 Este 0 967.2 -3.2 29
2019-04-16 17:00:00 22.3 18 Sudeste 34 Este 0 968.2 -2.9 32
2019-04-16 16:00:00 21.7 13 Sudeste 30 Sudeste 0 969.2 -2.7 29
2019-04-16 15:00:00 20.5 15 Sudeste 28 Sudeste 0 970.4 -2 34
2019-04-16 14:00:00 19.3 13 Sur 28 Sudeste 0 971.1 -1 42
2019-04-16 13:00:00 18.1 14 Sur 27 Sudeste 0 971.9 -0.5 47
2019-04-16 12:00:00 16.7 15 Sur 22 Sur 0 972.4 0.3 55
2019-04-16 11:00:00 14.9 7 Nordeste 12 Nordeste 0 972.1 0.1 62
2019-04-16 10:00:00 11.2 3 Norte 6 Norte 0 972.4 0.3 79
2019-04-16 09:00:00 7.9 0 Calma 8 Sudoeste 0 972.1 -0.2 90
2019-04-16 08:00:00 5.8 2 Sudoeste 7 Sur 0 972 -0.5 91
2019-04-16 07:00:00 6.3 3 Sudoeste 7 Sudoeste 0 972.1 -0.4 91
2019-04-16 06:00:00 7.2 3 Sur 6 Sudoeste 0 972.3 -0.4 88
2019-04-16 05:00:00 8.2 5 Sudoeste 7 Sudoeste 0 972.5 -0.2 87
2019-04-16 04:00:00 9.4 4 Oeste 17 Oeste 0 972.5 0.2 81
2019-04-16 03:00:00 10.6 12 Sudoeste 21 Oeste 0 972.7 0.8 78
2019-04-16 02:00:00 11 12 Oeste 18 Oeste 0 972.7 1.1 75
2019-04-16 01:00:00 11.6 7 Oeste 15 Oeste 0 972.3 1.4 73
2019-04-16 00:00:00 12.9 10 Oeste 25 Noroeste 0 971.9 2.3 67
2019-04-15 23:00:00 14 14 Oeste 26 Oeste 0 971.6 2.5 62
2019-04-15 22:00:00 14.9 12 Oeste 23 Oeste 0 970.9 1.7 54
2019-04-15 21:00:00 16.2 10 Oeste 29 Oeste 0 969.6 0.6 52
2019-04-15 20:00:00 18 14 Oeste 32 Sudoeste 0 969.1 0.2 46
2019-04-15 19:00:00 17.5 13 Oeste 29 Oeste 0 969.2 0.6 54
2019-04-15 18:00:00 16.9 14 Oeste 27 Noroeste 0 969 1.3 63
2019-04-15 17:00:00 13.6 15 Oeste 35 Oeste 0 968.9 1.3 86
2019-04-15 16:00:00 14.8 26 Oeste 46 Noroeste 0 968.6 0.9 72
2019-04-15 15:00:00 19.1 15 Noroeste 33 Sudoeste 0 967.7 -0.1 49
2019-04-15 14:00:00 19.8 16 Sudoeste 31 Oeste 0 967.6 0.4 41
2019-04-15 13:00:00 19.9 14 Sudoeste 30 Oeste 0 967.7 0.5 49
2019-04-15 12:00:00 18.4 16 Oeste 29 Oeste 0 967.8 1 59
2019-04-15 11:00:00 17.1 8 Oeste 20 Sudoeste 0 967.2 0.9 74
2019-04-15 10:00:00 16.6 9 Sudoeste 33 Sur 0 967.2 1.6 75
2019-04-15 09:00:00 16.1 17 Sur 25 Sur 0 966.8 0.6 75
2019-04-15 08:00:00 15.2 13 Sur 21 Sur 0 966.3 -0.4 78
2019-04-15 07:00:00 15.9 2 Nordeste 20 Sur 0 965.6 -2.1 76
2019-04-15 06:00:00 16.6 14 Sur 20 Sur 0 966.2 -1.9 72
2019-04-15 05:00:00 16.5 13 Sur 19 Sur 0 966.7 -2.2 72
2019-04-15 04:00:00 15.9 4 Sudoeste 17 Sur 0 967.7 -1.4 74
2019-04-15 03:00:00 17.5 15 Sur 21 Sur 0 968.1 -1.3 67
2019-04-15 02:00:00 18.4 16 Sur 20 Sur 0 968.9 -0.6 64
2019-04-15 01:00:00 17.7 11 Sur 14 Sur 0 969.1 -0.4 68
2019-04-15 00:00:00 17.5 11 Sur 14 Sur 0 969.4 0 69
2019-04-14 23:00:00 17.5 10 Sur 13 Sur 0 969.5 0 71
2019-04-14 22:00:00 17.2 10 Sur 13 Sudoeste 0 969.5 -0.2 72
2019-04-14 21:00:00 20.4 6 Sur 13 Sur 0 969.4 -0.6 60
2019-04-14 20:00:00 21.7 6 Sur 16 Sudoeste 0 969.5 -1 55
2019-04-14 19:00:00 22.2 10 Sudoeste 17 Sur 0 969.7 -1.7 53
2019-04-14 18:00:00 22.7 5 Sur 15 Noroeste 0 970 -1.7 52
2019-04-14 17:00:00 22.2 6 Noroeste 15 Sudoeste 0 970.5 -1.9 51
2019-04-14 16:00:00 21.9 5 Noroeste 17 Sudoeste 0 971.4 -1.4 54
2019-04-14 15:00:00 22.6 4 Noroeste 17 Noroeste 0 971.7 -1.5 52
2019-04-14 14:00:00 21.2 7 Noroeste 20 Sudoeste 0 972.4 -0.8 58
2019-04-14 13:00:00 19.4 8 Noroeste 14 Noroeste 0 972.8 0 64
2019-04-14 12:00:00 17.5 8 Oeste 17 Sudoeste 0 973.2 0.5 73
2019-04-14 11:00:00 16.5 4 Sudoeste 18 Sudoeste 0 973.2 0.8 77
2019-04-14 10:00:00 14.8 5 Oeste 12 Sudoeste 0 972.8 0.7 84
2019-04-14 09:00:00 13.8 6 Oeste 13 Oeste 0 972.7 0.3 90
2019-04-14 08:00:00 13.6 8 Oeste 14 Oeste 0 972.4 -0.4 92
2019-04-14 07:00:00 13.4 8 Oeste 19 Sudoeste 0 972.1 -1 93
2019-04-14 06:00:00 13.2 13 Sudoeste 30 Sudoeste 0 972.4 -0.8 94
2019-04-14 05:00:00 13.2 20 Sudoeste 27 Sudoeste 0 972.8 -0.9 94
2019-04-14 04:00:00 13.2 16 Oeste 26 Oeste 0 973.1 -0.6 92
2019-04-14 03:00:00 13.7 16 Sudoeste 27 Sudoeste 0 973.2 -0.7 90
2019-04-14 02:00:00 14 11 Oeste 26 Sudoeste 0 973.7 -0.2 88
2019-04-14 01:00:00 14.5 13 Oeste 26 Sudoeste 0 973.7 0.3 84
2019-04-14 00:00:00 15.6 12 Oeste 26 Oeste 0 973.9 1 76
2019-04-13 23:00:00 16.4 5 Oeste 15 Oeste 0 973.9 1.4 69
2019-04-13 22:00:00 17.5 9 Oeste 26 Oeste 0 973.4 1.1 61
2019-04-13 21:00:00 18.7 14 Oeste 25 Oeste 0 972.9 0.9 49
2019-04-13 20:00:00 20.2 15 Oeste 31 Noroeste 0 972.5 0.4 35
2019-04-13 19:00:00 20.5 16 Oeste 29 Oeste 0 972.3 -0.3 32
2019-04-13 18:00:00 22.7 12 Oeste 23 Noroeste 0 972 -1 31
2019-04-13 17:00:00 22.6 10 Oeste 25 Noroeste 0 972.1 -1.2 32
2019-04-13 16:00:00 21.8 7 Noroeste 23 Noroeste 0 972.6 -1 31
2019-04-13 15:00:00 21 12 Oeste 19 Oeste 0 973 -0.8 37
2019-04-13 14:00:00 20.4 10 Sudoeste 18 Sudoeste 0 973.3 -0.6 35
2019-04-13 13:00:00 19.5 9 Oeste 18 Noroeste 0 973.6 0 35
2019-04-13 12:00:00 17.8 4 Noroeste 9 Nordeste 0 973.8 0.5 46
2019-04-13 11:00:00 16.2 4 Norte 8 Norte 0 973.9 0.8 49
2019-04-13 10:00:00 13.6 2 Este 6 Este 0 973.6 0.9 67
2019-04-13 09:00:00 10.6 2 Sudeste 6 Sudeste 0 973.3 0.8 78
2019-04-13 08:00:00 11.2 0 Calma 10 Oeste 0 973.1 0.9 70
2019-04-13 07:00:00 11.3 4 Sudoeste 9 Sudoeste 0 972.7 0.3 71
2019-04-13 06:00:00 11.3 4 Norte 9 Norte 0 972.5 -0.2 67
2019-04-13 05:00:00 11.9 3 Sudoeste 11 Oeste 0 972.2 -0.7 64
2019-04-13 04:00:00 12.2 7 Oeste 22 Sudoeste 0 972.4 -0.6 64
2019-04-13 03:00:00 12.6 13 Oeste 19 Oeste 0 972.7 0.2 64
2019-04-13 02:00:00 13 8 Oeste 15 Oeste 0 972.9 0.5 58
2019-04-13 01:00:00 12.7 4 Oeste 21 Oeste 0 973 1.3 51
2019-04-13 00:00:00 14 13 Sudoeste 16 Sudoeste 0 972.5 1.2 42
2019-04-12 23:00:00 13.6 14 Sudoeste 16 Oeste 0 972.4 1.1 43
2019-04-12 22:00:00 13.1 10 Sudoeste 13 Sudoeste 0 971.7 0.3 50
2019-04-12 21:00:00 16 8 Oeste 13 Oeste 0 971.3 -0.2 40
2019-04-12 20:00:00 20.3 4 Oeste 17 Noroeste 0 971.3 -0.5 29
2019-04-12 19:00:00 20.2 8 Noroeste 25 Noroeste 0 971.4 -1.1 23
2019-04-12 18:00:00 19.9 8 Noroeste 23 Noroeste 0 971.5 -1.5 25
2019-04-12 17:00:00 19.4 5 Noroeste 28 Noroeste 0 971.8 -1.6 26
2019-04-12 16:00:00 19.2 6 Sudoeste 24 Oeste 0 972.5 -1.2 29
2019-04-12 15:00:00 18.4 5 Nordeste 20 Noroeste 0 973 -1.2 29
2019-04-12 14:00:00 17.6 7 Norte 19 Nordeste 0 973.4 -0.6 29
2019-04-12 13:00:00 16.8 7 Norte 15 Norte 0 973.7 -0.2 34
2019-04-12 12:00:00 15.7 7 Norte 12 Nordeste 0 974.2 0.5 39
2019-04-12 11:00:00 14 3 Este 11 Este 0 974 0.5 50
2019-04-12 10:00:00 12.6 5 Este 8 Sudeste 0 973.9 0.9 47
2019-04-12 09:00:00 7.5 3 Sudeste 7 Sudoeste 0 973.7 0.8 75
2019-04-12 08:00:00 3.9 5 Sudoeste 6 Sudoeste 0 973.5 0.6 83
2019-04-12 07:00:00 4.6 5 Oeste 9 Sudoeste 0 973 0.2 80
2019-04-12 06:00:00 5.3 4 Sudoeste 9 Sudoeste 0 972.9 0.1 75
2019-04-12 05:00:00 6.5 5 Sudoeste 8 Sudoeste 0 972.9 -0.1 71
2019-04-12 04:00:00 7.3 5 Sudoeste 9 Oeste 0 972.8 -0.2 67
2019-04-12 03:00:00 7.5 6 Oeste 8 Oeste 0 972.8 -0.2 68
2019-04-12 02:00:00 8.9 5 Oeste 13 Oeste 0 973 -0.1 62
2019-04-12 01:00:00 9.4 8 Oeste 10 Oeste 0 973 0.4 58
2019-04-12 00:00:00 9.9 8 Oeste 10 Sudoeste 0 973 1 57
2019-04-11 23:00:00 11.1 5 Oeste 9 Sudoeste 0 973.1 1.4 52
2019-04-11 22:00:00 11.6 6 Sudoeste 9 Noroeste 0 972.6 0.8 55
2019-04-11 21:00:00 15.2 4 Noroeste 23 Noroeste 0 972 0.2 40
2019-04-11 20:00:00 17.8 14 Noroeste 24 Noroeste 0 971.7 -0.2 30
2019-04-11 19:00:00 18.5 14 Noroeste 25 Oeste 0 971.8 -0.5 30
2019-04-11 18:00:00 18.3 14 Noroeste 30 Norte 0 971.8 -1.1 29
2019-04-11 17:00:00 18.3 14 Noroeste 26 Noroeste 0 971.9 -1.4 31
2019-04-11 16:00:00 17.7 12 Oeste 24 Noroeste 0 972.3 -1.5 32
2019-04-11 15:00:00 17 11 Noroeste 25 Noroeste 0 972.9 -1.1 36
2019-04-11 14:00:00 16.3 11 Noroeste 24 Noroeste 0 973.3 -0.7 39
2019-04-11 13:00:00 15.1 8 Noroeste 19 Norte 0 973.8 0 53
2019-04-11 12:00:00 13.9 6 Oeste 16 Oeste 0 974 0.5 58
2019-04-11 11:00:00 11.7 6 Noroeste 12 Norte 0 974 1 67
2019-04-11 10:00:00 9.8 5 Noroeste 10 Noroeste 0 973.8 0.9 75
2019-04-11 09:00:00 7.5 4 Oeste 8 Noroeste 0 973.5 0.7 85
2019-04-11 08:00:00 5.7 5 Sudoeste 10 Sudoeste 0 973 0.2 89
2019-04-11 07:00:00 5.9 6 Sudoeste 10 Oeste 0 972.9 0.3 87
2019-04-11 06:00:00 6.6 6 Oeste 11 Noroeste 0 972.8 0.2 86
2019-04-11 05:00:00 7.1 4 Oeste 13 Oeste 0 972.8 0.3 83
2019-04-11 04:00:00 7.7 8 Noroeste 13 Noroeste 0 972.6 0.1 80
2019-04-11 03:00:00 8.2 6 Oeste 15 Oeste 0 972.6 0.1 76
2019-04-11 02:00:00 8.3 11 Oeste 23 Noroeste 0 972.5 -0.4 77
2019-04-11 01:00:00 9.4 12 Noroeste 19 Noroeste 0 972.5 0.5 71
2019-04-11 00:00:00 9.2 6 Oeste 16 Noroeste 0 972.5 2 72
2019-04-10 23:00:00 10.6 10 Noroeste 21 Oeste 0 972.9 2.9 62
2019-04-10 22:00:00 12.5 10 Norte 34 Noroeste 0 972 2.2 54
2019-04-10 21:00:00 14.3 17 Oeste 36 Oeste 0 970.5 1 50
2019-04-10 20:00:00 15.8 19 Noroeste 40 Noroeste 0 970 0.1 51
2019-04-10 19:00:00 16.4 21 Noroeste 39 Noroeste 0 969.8 -0.8 45
2019-04-10 18:00:00 16.4 24 Oeste 40 Noroeste 0 969.5 -1.5 43
2019-04-10 17:00:00 16.3 22 Noroeste 37 Noroeste 0 969.9 -1.2 45
2019-04-10 16:00:00 15.7 22 Noroeste 43 Oeste 0 970.6 -0.9 49
2019-04-10 15:00:00 15 23 Noroeste 42 Noroeste 0 971 -0.8 51
2019-04-10 14:00:00 15.1 22 Noroeste 39 Noroeste 0 971.1 -0.7 50
2019-04-10 13:00:00 13.9 24 Noroeste 39 Noroeste 0 971.5 0.1 54
2019-04-10 12:00:00 12.6 18 Oeste 31 Noroeste 0 971.8 0.4 62
2019-04-10 11:00:00 10.7 17 Oeste 32 Sudoeste 0 971.8 0.9 77
2019-04-10 10:00:00 8.9 18 Oeste 32 Oeste 0 971.4 0.7 84
2019-04-10 09:00:00 7.9 17 Oeste 30 Oeste 0 971.4 0.7 87
2019-04-10 08:00:00 7.3 16 Oeste 30 Oeste 0 970.9 0.2 90
2019-04-10 07:00:00 7.1 14 Oeste 29 Oeste 0 970.7 -0.2 92
2019-04-10 06:00:00 7.3 19 Sudoeste 33 Sudoeste 0 970.7 -0.4 92
2019-04-10 05:00:00 7.5 21 Sudoeste 33 Sudoeste 0 970.7 -0.6 90
2019-04-10 04:00:00 7.7 17 Oeste 29 Sudoeste 0 970.9 -0.4 88
2019-04-10 03:00:00 8 15 Oeste 32 Oeste 0 971.1 0.2 87
2019-04-10 02:00:00 8.3 18 Oeste 32 Oeste 0 971.3 0.3 86
2019-04-10 01:00:00 8.6 17 Oeste 36 Oeste 0 971.3 1 82
2019-04-10 00:00:00 9.1 20 Oeste 35 Oeste 0 970.9 1.2 78
2019-04-09 23:00:00 10.1 20 Oeste 35 Oeste 0 971 1.7 72
2019-04-09 22:00:00 10.7 15 Oeste 34 Oeste 0 970.3 1.5 69
2019-04-09 21:00:00 12.1 18 Oeste 40 Oeste 0 969.7 0.7 61
2019-04-09 20:00:00 13.4 26 Oeste 43 Noroeste 0 969.3 0.5 57
2019-04-09 19:00:00 14.6 18 Oeste 42 Oeste 0 968.8 -0.2 53
2019-04-09 18:00:00 13.6 18 Noroeste 48 Noroeste 0 969 -0.3 65
2019-04-09 17:00:00 15.2 22 Oeste 43 Oeste 0 968.8 -0.7 43
2019-04-09 16:00:00 14.7 19 Oeste 44 Oeste 0 969 -0.8 58
2019-04-09 15:00:00 14.3 22 Oeste 39 Oeste 0 969.3 -0.9 58
2019-04-09 14:00:00 12.5 23 Oeste 38 Oeste 0 969.5 -0.5 65
2019-04-09 13:00:00 11.9 18 Oeste 44 Oeste 0.4 969.8 0 75
2019-04-09 12:00:00 10.7 17 Oeste 38 Oeste 0.4 970.2 0.5 83
2019-04-09 11:00:00 10 19 Sudoeste 37 Sudoeste 0 970 0.6 81
2019-04-09 10:00:00 8.9 17 Sudoeste 40 Sudoeste 0 969.8 0.4 90
2019-04-09 09:00:00 8.7 9 Sudoeste 32 Oeste 0 969.7 0.3 91
2019-04-09 08:00:00 8 13 Sudoeste 28 Sudoeste 0 969.4 -0.2 93
2019-04-09 07:00:00 8.2 14 Sudoeste 31 Sudoeste 0 969.4 -0.3 91
2019-04-09 06:00:00 7.7 14 Sudoeste 33 Sudoeste 0 969.4 -0.5 94
2019-04-09 05:00:00 7.9 16 Sudoeste 30 Sudoeste 0 969.6 -0.4 90
2019-04-09 04:00:00 8.2 10 Sudoeste 26 Sudoeste 0 969.7 -0.2 88
2019-04-09 03:00:00 8.4 11 Sudoeste 27 Sudoeste 0 969.9 -0.2 84
2019-04-09 02:00:00 8.5 14 Sudoeste 31 Sudoeste 0 970 0.2 85
2019-04-09 01:00:00 8.9 13 Sudoeste 30 Sudoeste 0 969.9 0.5 81
2019-04-09 00:00:00 9.2 11 Sudoeste 23 Oeste 0 970.1 1.3 76
2019-04-08 23:00:00 9.7 14 Oeste 29 Oeste 0 969.8 1.1 73
2019-04-08 22:00:00 10.1 17 Sudoeste 26 Oeste 0 969.4 1.2 77
2019-04-08 21:00:00 10.6 20 Sudoeste 35 Sudoeste 0.2 968.8 0.1 75
2019-04-08 20:00:00 10.9 22 Oeste 41 Oeste 0 968.7 0.8 77
2019-04-08 19:00:00 13.6 10 Oeste 30 Sudoeste 1.2 968.2 0 64
2019-04-08 18:00:00 12.4 17 Oeste 42 Oeste 1.2 968.7 -0.1 72
2019-04-08 17:00:00 15.8 14 Oeste 28 Oeste 0 967.9 -1.2 41
2019-04-08 16:00:00 16.8 15 Oeste 31 Sudoeste 0 968.2 -1.1 40
2019-04-08 15:00:00 16 15 Oeste 27 Noroeste 0 968.8 -0.6 52
2019-04-08 14:00:00 15.2 15 Oeste 29 Noroeste 0 969.1 0 47
2019-04-08 13:00:00 14.5 17 Sudoeste 36 Sudoeste 0 969.3 0.4 56
2019-04-08 12:00:00 13.1 13 Oeste 30 Oeste 0 969.4 0.7 63
2019-04-08 11:00:00 12.4 13 Sudoeste 24 Sudoeste 0 969.1 1.1 77
2019-04-08 10:00:00 10.8 14 Sudoeste 24 Sudoeste 0 968.9 1.3 87
2019-04-08 09:00:00 10.8 12 Sudoeste 19 Oeste 0 968.7 1.4 91
2019-04-08 08:00:00 10.3 10 Oeste 26 Oeste 0 968 0.9 93
2019-04-08 07:00:00 10.6 11 Oeste 27 Sudoeste 0.2 967.6 0.3 94
2019-04-08 06:00:00 10.6 15 Oeste 34 Oeste 2.2 967.3 -0.3 93
2019-04-08 05:00:00 11.3 14 Sur 32 Sur 1 967.1 -0.9 93
2019-04-08 04:00:00 11.2 17 Sur 37 Sur 0.8 967.3 -0.7 92
2019-04-08 03:00:00 11.5 8 Sur 38 Oeste 1 967.6 -0.7 91
2019-04-08 02:00:00 11.8 11 Sudoeste 30 Sudoeste 0 968 -0.4 91
2019-04-08 01:00:00 12 6 Sudoeste 26 Oeste 0 968 0.1 91
2019-04-08 00:00:00 12.1 9 Sudoeste 24 Sudoeste 0 968.3 0.7 91
2019-04-07 23:00:00 11.9 10 Sudoeste 22 Sudoeste 0 968.4 1 92
2019-04-07 22:00:00 11.8 13 Sudoeste 33 Sudoeste 0.2 967.9 0.8 92
2019-04-07 21:00:00 11.8 11 Sudoeste 33 Sudoeste 0 967.6 0.6 93
2019-04-07 20:00:00 11.6 5 Sur 30 Sudoeste 1 967.4 0.3 93
2019-04-07 19:00:00 11.5 15 Sur 30 Sur 0.2 967.1 -0.5 92
2019-04-07 18:00:00 11.8 12 Sur 29 Sur 0 967 -1 86
2019-04-07 17:00:00 11 17 Sur 30 Sur 0 967.1 -1.2 89
2019-04-07 16:00:00 11.6 14 Sur 25 Sudoeste 0 967.6 -0.3 85
2019-04-07 15:00:00 11.2 15 Sudoeste 29 Sudoeste 0 968 0.2 83
2019-04-07 14:00:00 9.9 10 Sudoeste 30 Oeste 0.4 968.3 0.9 87
2019-04-07 13:00:00 11.8 9 Sudoeste 17 Sudoeste 0 967.9 1.1 73
2019-04-07 12:00:00 10.5 14 Sudoeste 23 Oeste 0 967.8 1.5 76
2019-04-07 11:00:00 9.7 13 Sudoeste 25 Oeste 0 967.4 1.7 79
2019-04-07 10:00:00 8.7 14 Sudoeste 26 Sudoeste 0 966.8 1.6 84
2019-04-07 09:00:00 8 10 Sudoeste 21 Sur 0 966.3 1.6 87
2019-04-07 08:00:00 7.8 14 Sudoeste 27 Oeste 0 965.7 1.2 87
2019-04-07 07:00:00 7.7 17 Sudoeste 27 Oeste 0 965.2 0.8 88
2019-04-07 06:00:00 7.9 15 Sudoeste 32 Sudoeste 0 964.7 0.5 84
2019-04-07 05:00:00 7.8 23 Sudoeste 36 Sudoeste 0 964.5 0.6 85
2019-04-07 04:00:00 7.8 13 Oeste 35 Oeste 0 964.4 0.7 87
2019-04-07 03:00:00 8.1 17 Oeste 28 Sudoeste 0 964.2 0.7 84
2019-04-07 02:00:00 8 16 Sudoeste 32 Sudoeste 0 963.9 0.3 81
2019-04-07 01:00:00 8.1 19 Sudoeste 36 Sudoeste 0 963.7 0.5 79
2019-04-07 00:00:00 7.9 20 Sudoeste 33 Oeste 0 963.5 0.7 81
2019-04-06 23:00:00 7.5 21 Sudoeste 32 Sudoeste 0 963.6 1.4 83
2019-04-06 22:00:00 7.2 18 Oeste 39 Oeste 0 963.2 1.9 82
2019-04-06 21:00:00 7.9 19 Oeste 37 Oeste 0 962.8 1.5 77
2019-04-06 20:00:00 9.1 20 Oeste 40 Oeste 0 962.2 0.9 74
2019-04-06 19:00:00 10.4 15 Oeste 29 Oeste 0.2 961.3 -0.2 74
2019-04-06 18:00:00 8.3 13 Oeste 29 Oeste 0 961.3 0 83
2019-04-06 17:00:00 7.5 13 Oeste 37 Noroeste 1.4 961.3 0.1 86
2019-04-06 16:00:00 8.5 19 Oeste 47 Oeste 0.4 961.5 0.4 78
2019-04-06 15:00:00 9.3 17 Oeste 42 Oeste 0 961.3 0.1 69
2019-04-06 14:00:00 7.9 21 Oeste 43 Noroeste 0.2 961.2 0.6 85
2019-04-06 13:00:00 6.6 13 Noroeste 29 Noroeste 2.8 961.1 0.7 90
2019-04-06 12:00:00 8.6 15 Oeste 39 Sudoeste 0 961.2 1.1 80
2019-04-06 11:00:00 7.7 22 Oeste 44 Oeste 0.2 960.6 1.2 84
2019-04-06 10:00:00 6.8 19 Sudoeste 50 Sudoeste 0.2 960.4 1.1 87
2019-04-06 09:00:00 6.3 20 Sudoeste 46 Sudoeste 0.4 960.1 0.8 92
2019-04-06 08:00:00 6.3 15 Sudoeste 30 Sudoeste 0 959.4 0.2 89
2019-04-06 07:00:00 6.5 18 Sudoeste 36 Sudoeste 0 959.3 0.1 87
2019-04-06 06:00:00 6.2 16 Sudoeste 37 Oeste 0 959.3 -0.3 89
2019-04-06 05:00:00 5.8 20 Sudoeste 37 Sudoeste 0 959.2 -0.5 91
2019-04-06 04:00:00 5.9 20 Sudoeste 32 Sudoeste 0 959.2 -0.5 89
2019-04-06 03:00:00 5.9 16 Sudoeste 31 Sudoeste 0 959.6 0.3 88
2019-04-06 02:00:00 5.9 15 Sudoeste 30 Sudoeste 0 959.7 0.8 84
2019-04-06 01:00:00 5.8 21 Sudoeste 33 Sudoeste 0 959.7 1.7 84
2019-04-06 00:00:00 6.6 14 Oeste 35 Sudoeste 0 959.3 2 76
2019-04-05 23:00:00 7 21 Oeste 35 Oeste 0 958.9 2.3 76
2019-04-05 22:00:00 6.8 17 Oeste 34 Oeste 0 958 1.8 79
2019-04-05 21:00:00 7.9 21 Oeste 40 Oeste 0 957.3 1.4 73
2019-04-05 20:00:00 8.7 17 Oeste 41 Sudoeste 0 956.6 1.3 69
2019-04-05 19:00:00 8.9 20 Sudoeste 52 Sudoeste 0.2 956.2 0.7 70
2019-04-05 18:00:00 9.2 27 Oeste 52 Oeste 0 955.9 0.4 70
2019-04-05 17:00:00 11.3 16 Oeste 41 Oeste 0 955.3 -0.7 52
2019-04-05 16:00:00 11.1 20 Oeste 37 Oeste 0 955.5 -0.8 48
2019-04-05 15:00:00 10.7 19 Oeste 39 Sudoeste 0 955.5 -0.6 53
2019-04-05 14:00:00 9.5 17 Oeste 41 Oeste 0 956 0.5 70
2019-04-05 13:00:00 8.3 19 Oeste 39 Oeste 0 956.3 0.9 72
2019-04-05 12:00:00 6.6 18 Oeste 33 Oeste 0 956.1 1.8 78
2019-04-05 11:00:00 5.1 12 Oeste 39 Oeste 0.8 955.5 1.5 90
2019-04-05 10:00:00 4.2 29 Oeste 47 Oeste 1.2 955.4 1.5 90
2019-04-05 09:00:00 7.2 13 Sudoeste 22 Sudoeste 0 954.3 0.3 88
2019-04-05 08:00:00 7 11 Oeste 19 Sur 0 954 -0.6 87
2019-04-05 07:00:00 7.8 10 Sudoeste 27 Sudoeste 0 953.9 -1 89
2019-04-05 06:00:00 7.7 6 Sur 39 Sur 0 954 -1.6 89
2019-04-05 05:00:00 7.6 11 Sur 36 Sudoeste 0 954.6 -1.5 92
2019-04-05 04:00:00 7.3 15 Sur 46 Sur 0.4 954.9 -1.8 91
2019-04-05 03:00:00 6.9 21 Sur 41 Sudoeste 0 955.6 -1.5 91
2019-04-05 02:00:00 6.9 24 Sur 43 Sur 1.2 956.1 -1.4 88
2019-04-05 01:00:00 7.2 16 Sur 37 Sur 0.2 956.7 -0.4 88
2019-04-05 00:00:00 7.1 10 Sudoeste 20 Sudoeste 0.4 957.1 0.5 88
2019-04-04 23:00:00 7.6 10 Noroeste 24 Noroeste 0.6 957.5 0.9 85
2019-04-04 22:00:00 9.5 16 Noroeste 33 Noroeste 0 957.1 0.5 68
2019-04-04 21:00:00 12.3 15 Oeste 38 Sudoeste 0 956.6 -0.3 42
2019-04-04 20:00:00 13.3 21 Sudoeste 36 Sudoeste 0 956.6 -0.9 39
2019-04-04 19:00:00 14.6 17 Sudoeste 30 Oeste 0 956.6 -1.7 27
2019-04-04 18:00:00 15.5 12 Oeste 37 Oeste 0 956.9 -2.1 21
2019-04-04 17:00:00 15.5 13 Noroeste 24 Noroeste 0 957.5 -2.5 25
2019-04-04 16:00:00 15.4 11 Sudoeste 23 Noroeste 0 958.3 -2.4 25
2019-04-04 15:00:00 14.6 7 Noroeste 23 Noroeste 0 959 -2 29
2019-04-04 14:00:00 13.5 9 Noroeste 18 Noroeste 0 960 -1 30
2019-04-04 13:00:00 12.5 6 Sur 14 Norte 0 960.7 -0.5 34
2019-04-04 12:00:00 10.5 8 Norte 20 Nordeste 0 961 0.2 40
2019-04-04 11:00:00 8.6 7 Norte 15 Nordeste 0 961 0.7 45
2019-04-04 10:00:00 6.7 6 Nordeste 12 Noroeste 0 961.2 1.3 51
2019-04-04 09:00:00 4 3 Oeste 8 Norte 0 960.8 0.8 62
2019-04-04 08:00:00 3.1 3 Sur 22 Noroeste 0 960.3 0.1 65
2019-04-04 07:00:00 4.3 13 Noroeste 27 Noroeste 0 959.9 -0.5 61
2019-04-04 06:00:00 3.5 6 Noroeste 12 Noroeste 0 960 -0.9 65
2019-04-04 05:00:00 4.3 4 Oeste 18 Noroeste 0 960.2 -1.1 61
2019-04-04 04:00:00 5.5 5 Noroeste 21 Noroeste 0 960.4 -0.7 54
2019-04-04 03:00:00 6.3 15 Noroeste 28 Noroeste 0 960.9 -0.4 52
2019-04-04 02:00:00 7.4 16 Noroeste 36 Noroeste 0 961.3 -0.1 50
2019-04-04 01:00:00 9 23 Noroeste 39 Noroeste 0 961.1 0.2 44
2019-04-04 00:00:00 8.9 12 Noroeste 20 Noroeste 0 961.3 0.9 43
2019-04-03 23:00:00 9.6 9 Noroeste 16 Noroeste 0 961.4 1 39
2019-04-03 22:00:00 10.6 8 Noroeste 18 Norte 0 960.9 0.5 38
2019-04-03 21:00:00 12.4 6 Norte 32 Norte 0 960.4 -0.2 35
2019-04-03 20:00:00 14.4 19 Norte 41 Norte 0 960.4 -0.4 31
2019-04-03 19:00:00 15.4 21 Norte 36 Norte 0 960.4 -1.1 29
2019-04-03 18:00:00 15.8 24 Norte 40 Noroeste 0 960.6 -1.5 30
2019-04-03 17:00:00 16.6 20 Noroeste 39 Noroeste 0 960.8 -2 31
2019-04-03 16:00:00 16.2 15 Noroeste 36 Noroeste 0 961.5 -1.7 34
2019-04-03 15:00:00 15.6 19 Noroeste 35 Noroeste 0 962.1 -1.7 39
2019-04-03 14:00:00 14.6 18 Noroeste 37 Noroeste 0 962.8 -1.3 45
2019-04-03 13:00:00 13.9 12 Noroeste 29 Noroeste 0 963.2 -1.1 52
2019-04-03 12:00:00 12.4 14 Norte 25 Noroeste 0 963.8 -0.8 56
2019-04-03 11:00:00 10.3 11 Noroeste 24 Noroeste 0 964.1 -0.7 68
2019-04-03 10:00:00 9 11 Oeste 23 Oeste 0 964.3 -0.7 73
2019-04-03 09:00:00 7.5 16 Oeste 28 Sudoeste 0 964.6 -0.5 78
2019-04-03 08:00:00 7.5 20 Oeste 30 Sudoeste 0 964.8 -0.9 78
2019-04-03 07:00:00 8 14 Oeste 26 Sudoeste 0 965 -1.2 75
2019-04-03 06:00:00 8.8 10 Oeste 24 Sudoeste 0 965.1 -1.9 71
2019-04-03 05:00:00 9.3 17 Sudoeste 27 Sudoeste 0 965.7 -2 73
2019-04-03 04:00:00 9.9 18 Sudoeste 26 Sudoeste 0 966.2 -1.8 72
2019-04-03 03:00:00 11.1 16 Oeste 31 Oeste 0 967 -1.3 67
2019-04-03 02:00:00 11.8 19 Oeste 32 Oeste 0 967.7 -0.5 64
2019-04-03 01:00:00 13 18 Oeste 30 Oeste 0 968 0 60
2019-04-03 00:00:00 14 13 Oeste 25 Sudoeste 0 968.3 0.6 56
2019-04-02 23:00:00 14.9 18 Sudoeste 29 Sudoeste 0 968.2 0.8 57
2019-04-02 22:00:00 15.9 19 Sudoeste 29 Oeste 0 968 0.5 52
2019-04-02 21:00:00 17.4 17 Oeste 27 Oeste 0 967.7 -0.1 45
2019-04-02 20:00:00 19.6 10 Oeste 23 Oeste 0 967.4 -0.8 37
2019-04-02 19:00:00 19.6 11 Oeste 27 Oeste 0 967.5 -1.4 35
2019-04-02 18:00:00 20.8 13 Oeste 28 Oeste 0 967.8 -1.7 34
2019-04-02 17:00:00 20.3 13 Oeste 27 Noroeste 0 968.2 -2 35
2019-04-02 16:00:00 19.9 12 Oeste 27 Noroeste 0 968.9 -1.9 36
2019-04-02 15:00:00 19.3 12 Oeste 25 Oeste 0 969.5 -1.7 37
2019-04-02 14:00:00 18.2 8 Oeste 23 Oeste 0 970.2 -0.9 45
2019-04-02 13:00:00 17 9 Noroeste 19 Oeste 0 970.8 -0.1 56
2019-04-02 12:00:00 15.3 11 Sudoeste 20 Sudoeste 0 971.2 0.7 61
2019-04-02 11:00:00 13.8 8 Sudoeste 13 Sudoeste 0 971.1 1.2 70
2019-04-02 10:00:00 11.5 2 Norte 6 Nordeste 0 970.9 1.3 83
2019-04-02 09:00:00 8.5 0 Calma 8 Sudeste 0 970.5 0.7 90
2019-04-02 08:00:00 7.9 3 Este 9 Sudeste 0 969.9 0.1 90
2019-04-02 07:00:00 8.1 6 Este 12 Oeste 0 969.6 -0.7 88
2019-04-02 06:00:00 8.4 3 Norte 8 Noroeste 0 969.8 -0.6 87
2019-04-02 05:00:00 9.2 4 Sudeste 14 Sudoeste 0 969.8 -0.5 84
2019-04-02 04:00:00 10.8 6 Sudoeste 23 Sudoeste 0 970.3 0.3 78
2019-04-02 03:00:00 10.2 9 Sudoeste 21 Sudoeste 0 970.4 0.5 85
2019-04-02 02:00:00 10.5 4 Sudeste 21 Sudoeste 0 970.3 0.5 78
2019-04-02 01:00:00 11.4 17 Sudoeste 24 Sudoeste 0 970 0.8 75
2019-04-02 00:00:00 11.9 14 Sudoeste 25 Sudoeste 0 969.9 1.6 72
2019-04-01 23:00:00 12.6 20 Sudoeste 26 Sudoeste 0 969.8 2 69
2019-04-01 22:00:00 13 18 Sudoeste 27 Sudoeste 0 969.2 1.8 69
2019-04-01 21:00:00 14 15 Sudoeste 24 Sudoeste 0 968.3 1.2 62
2019-04-01 20:00:00 15 18 Sur 28 Sur 0 967.8 0.5 63
2019-04-01 19:00:00 17.2 4 Sur 8 Sur 0 967.4 -0.2 57
2019-04-01 18:00:00 16.7 4 Norte 12 Este 0 967.1 -1.2 59
2019-04-01 17:00:00 16.5 5 Sudeste 14 Este 0 967.3 -1.5 58
2019-04-01 16:00:00 15.8 6 Norte 14 Este 0 967.6 -1.5 71
2019-04-01 15:00:00 14 5 Este 14 Este 0 968.3 -0.6 77
2019-04-01 14:00:00 13 3 Norte 6 Norte 0 968.8 0.4 84
2019-04-01 13:00:00 12.2 3 Este 16 Sur 1.6 969.1 1.4 85
2019-04-01 12:00:00 11.8 6 Sur 14 Sur 0.2 968.9 1.7 89
2019-04-01 11:00:00 11.3 8 Sudeste 12 Este 0 968.4 1.7 88
2019-04-01 10:00:00 10.9 4 Este 6 Sudeste 0.4 967.7 1.4 89
2019-04-01 09:00:00 10.7 3 Sudeste 5 Este 0 967.2 1.1 84
2019-04-01 08:00:00 11.3 3 Este 15 Sudeste 0 966.7 0.4 83
2019-04-01 07:00:00 12 13 Sudeste 21 Sudeste 0 966.3 -0.3 75
2019-04-01 06:00:00 11 7 Sudeste 12 Sudeste 0 966.1 -0.5 81
2019-04-01 05:00:00 10.9 3 Este 12 Sudeste 0 966.3 -0.4 81
2019-04-01 04:00:00 11 5 Este 9 Este 0 966.6 0 85
2019-04-01 03:00:00 10.9 6 Sudeste 11 Este 0 966.6 0.1 84
2019-04-01 02:00:00 11.3 7 Sudeste 10 Sudeste 0 966.7 0.5 83
2019-04-01 01:00:00 10.6 6 Sudoeste 10 Sudeste 0 966.6 1 85
2019-04-01 00:00:00 12.2 5 Sur 27 Sudoeste 0 966.5 1.7 76
2019-03-31 23:00:00 12.8 16 Sudoeste 22 Sudoeste 0 966.2 1.9 71
2019-03-31 22:00:00 13.6 11 Sudeste 14 Sudeste 0 965.6 1.6 60
2019-03-31 21:00:00 14.6 6 Sudeste 9 Este 0 964.8 0.7 63
2019-03-31 20:00:00 17.1 8 Este 21 Este 0 964.3 -0.3 53
2019-03-31 19:00:00 18.3 12 Este 23 Sudeste 0 964 -0.9 46
2019-03-31 18:00:00 18.4 20 Sudeste 31 Sudeste 0 964.1 -1.3 49
2019-03-31 17:00:00 17.1 17 Sur 32 Oeste 0 964.6 -1.6 57
2019-03-31 16:00:00 16.6 23 Sudoeste 30 Oeste 0 964.9 -1.9 57
2019-03-31 15:00:00 20 4 Sur 21 Este 0 965.4 -1.9 38
2019-03-31 14:00:00 19 11 Nordeste 24 Este 0 966.2 -1.3 42
2019-03-31 13:00:00 18 10 Este 19 Este 0 966.8 -0.3 45
2019-03-31 12:00:00 16.9 10 Este 19 Sudeste 0 967.3 0.4 49
2019-03-31 11:00:00 14 10 Este 18 Este 0 967.5 1 55
2019-03-31 10:00:00 11.6 8 Este 12 Este 0 967.1 0.8 61
2019-03-31 09:00:00 9.3 3 Sudeste 5 Sudeste 0 966.9 0.4 71
2019-03-31 08:00:00 8.8 3 Oeste 9 Sudeste 0 966.5 -0.6 68
2019-03-31 07:00:00 10.1 4 Sudoeste 6 Sur 0 966.3 -1.3 64
2019-03-31 06:00:00 9.7 4 Sudoeste 8 Sudoeste 0 966.5 -1.5 67
2019-03-31 05:00:00 11.5 2 Sudeste 9 Nordeste 0 967.1 -1.1 67
2019-03-31 03:00:00 11.5 5 Sur 7 Este 0 968 -1.4 64
2019-03-31 01:00:00 14.2 4 Sudoeste 20 Sudoeste 0 968.2 -0.9 52
2019-03-31 00:00:00 14.8 17 Sur 30 Sur 0 969 0.2 46
2019-03-30 23:00:00 13.9 14 Sudeste 24 Sudeste 0 969.4 1 39
2019-03-30 22:00:00 14.3 8 Sudeste 12 Este 0 969.1 0.6 35
2019-03-30 21:00:00 14 6 Sudeste 12 Este 0 968.8 0.3 36
2019-03-30 20:00:00 16.1 4 Sudoeste 12 Nordeste 0 968.4 -0.1 35
2019-03-30 19:00:00 19.3 9 Nordeste 17 Nordeste 0 968.5 -0.5 27
2019-03-30 18:00:00 20.3 6 Nordeste 39 Este 0 968.5 -1.4 25
2019-03-30 17:00:00 21.5 7 Nordeste 24 Este 0 968.5 -2.4 22
2019-03-30 16:00:00 21.2 12 Nordeste 33 Este 0 969 -2.9 22
2019-03-30 15:00:00 20.5 14 Este 24 Este 0 969.9 -2.9 26
2019-03-30 14:00:00 19.6 13 Este 27 Norte 0 970.9 -2.5 29
2019-03-30 13:00:00 18.5 8 Nordeste 26 Nordeste 0 971.9 -1.8 32
2019-03-30 12:00:00 16.5 12 Nordeste 24 Este 0 972.8 -1 37
2019-03-30 11:00:00 14.8 10 Nordeste 19 Nordeste 0 973.4 0 41
2019-03-30 10:00:00 12.3 10 Este 20 Este 0 973.7 0.3 48
2019-03-30 09:00:00 10 6 Este 13 Sudeste 0 973.8 0.6 50
2019-03-30 08:00:00 7.5 6 Este 9 Sudeste 0 973.4 0.3 55
2019-03-30 07:00:00 5.7 0 Calma 7 Sudeste 0 973.4 0.2 58
2019-03-30 06:00:00 6.1 3 Oeste 6 Sudoeste 0 973.2 -0.1 57
2019-03-30 05:00:00 6.6 3 Sudeste 7 Sudeste 0 973.1 -0.4 52
2019-03-30 04:00:00 6.4 4 Oeste 11 Sudoeste 0 973.2 -0.3 51
2019-03-30 03:00:00 8.1 0 Calma 9 Sudeste 0 973.3 -0.4 44
2019-03-30 02:00:00 8.3 0 Calma 10 Sudeste 0 973.5 -0.5 44
2019-03-30 01:00:00 12.2 8 Sudeste 12 Sudeste 0 973.5 -0.4 26
2019-03-30 00:00:00 12.4 9 Sudeste 13 Sudeste 0 973.7 -0.1 26
2019-03-29 23:00:00 9.6 6 Sur 8 Sur 0 974 0.6 37
2019-03-29 22:00:00 10 4 Sur 6 Sur 0 973.9 0.4 42
2019-03-29 21:00:00 10.4 0 Calma 9 Sur 0 973.8 0.5 44
2019-03-29 20:00:00 12.4 6 Sudoeste 12 Sudeste 0 973.4 -0.2 33
2019-03-29 19:00:00 18.5 6 Sudeste 20 Sudeste 0 973.5 -0.4 21
2019-03-29 18:00:00 19.9 12 Sudeste 23 Sudeste 0 973.3 -1.3 16
2019-03-29 17:00:00 20 12 Sudeste 24 Sudeste 0 973.6 -1.9 16
2019-03-29 16:00:00 20.1 13 Sudeste 30 Este 0 973.9 -2.1 15
2019-03-29 15:00:00 19.5 12 Sudeste 28 Este 0 974.6 -1.9 17
2019-03-29 14:00:00 18.7 15 Este 28 Sudeste 0 975.5 -1.6 17
2019-03-29 13:00:00 17.7 9 Este 30 Este 0 976 -1.1 23
2019-03-29 12:00:00 16.7 9 Este 26 Este 0 976.5 -0.7 25
2019-03-29 11:00:00 15.6 13 Este 26 Este 0 977.1 0 27
2019-03-29 10:00:00 15.1 14 Sudeste 23 Sudeste 0 977.1 0.5 28
2019-03-29 09:00:00 10.1 4 Norte 6 Norte 0 977.2 1.1 52
2019-03-29 08:00:00 6 0 Calma 8 Noroeste 0 977.1 1.5 59
2019-03-29 07:00:00 4.8 3 Noroeste 8 Noroeste 0 976.6 1 60
2019-03-29 06:00:00 7.2 3 Norte 14 Sudeste 0 976.1 0.3 48
2019-03-29 05:00:00 8.7 6 Sur 12 Este 0 975.6 -0.3 43
2019-03-29 04:00:00 9.5 5 Sudeste 20 Sudeste 0 975.6 -0.3 38
2019-03-29 03:00:00 11.1 7 Este 14 Sudeste 0 975.8 -0.4 31
2019-03-29 02:00:00 9.3 0 Calma 5 Sudeste 0 975.9 -0.5 36
2019-03-29 01:00:00 10.4 4 Sudeste 5 Sudeste 0 975.9 -0.4 33
2019-03-29 00:00:00 9.6 4 Sur 8 Sur 0 976.2 0.1 42
2019-03-28 23:00:00 9.9 3 Sudoeste 6 Sudoeste 0 976.4 0.8 44
2019-03-28 22:00:00 12.4 3 Sudoeste 10 Sudeste 0 976.3 1 30
2019-03-28 21:00:00 13.6 7 Sur 12 Sudeste 0 976.1 0.9 30
2019-03-28 20:00:00 15.2 8 Sudeste 12 Sudeste 0 975.6 0.2 27
2019-03-28 19:00:00 20 6 Sudeste 19 Sudeste 0 975.3 -0.8 20
2019-03-28 18:00:00 21.3 14 Sudeste 26 Este 0 975.2 -1.5 16
2019-03-28 17:00:00 21.3 11 Sudeste 31 Sudeste 0 975.4 -2 15
2019-03-28 16:00:00 21.4 15 Sudeste 32 Este 0 976.1 -2.1 15
2019-03-28 15:00:00 21.1 21 Este 39 Sur 0 976.7 -2.1 15
2019-03-28 14:00:00 20.8 13 Este 33 Sudeste 0 977.4 -1.9 15
2019-03-28 13:00:00 19.1 14 Este 28 Este 0 978.2 -1.1 20
2019-03-28 12:00:00 17.7 11 Este 23 Nordeste 0 978.8 -0.3 27
2019-03-28 11:00:00 15.3 7 Nordeste 16 Este 0 979.3 0.6 30
2019-03-28 10:00:00 12.1 6 Nordeste 10 Nordeste 0 979.3 1.2 43
2019-03-28 09:00:00 8.3 0 Calma 6 Norte 0 979.1 1.3 53
2019-03-28 08:00:00 5.7 3 Sudeste 4 Sudeste 0 978.7 1.1 56
2019-03-28 07:00:00 5.3 2 Sudoeste 5 Sudeste 0 978.1 0.7 55
2019-03-28 06:00:00 5.5 0 Calma 6 Noroeste 0 977.8 0.5 56
2019-03-28 05:00:00 4.9 5 Noroeste 8 Oeste 0 977.6 0.3 56
2019-03-28 04:00:00 5.8 0 Calma 5 Oeste 0 977.4 -0.1 56
2019-03-28 03:00:00 7.3 2 Sudeste 6 Sudoeste 0 977.3 0.2 52
2019-03-28 02:00:00 7.6 0 Calma 5 Sudoeste 0 977.3 0.5 44
2019-03-28 01:00:00 8.6 2 Sur 6 Sudeste 0 977.5 1 47
2019-03-28 00:00:00 12.1 6 Sudeste 12 Sudeste 0 977.1 1 34
2019-03-27 23:00:00 12.2 9 Sur 13 Sudeste 0 976.8 1.3 32
2019-03-27 22:00:00 13.1 6 Sudeste 11 Sudeste 0 976.5 1.4 33
2019-03-27 21:00:00 12.6 5 Sudeste 8 Sudeste 0 976.1 1.3 35
2019-03-27 20:00:00 15.9 2 Noroeste 15 Nordeste 0 975.5 0.6 28
2019-03-27 19:00:00 19 12 Nordeste 23 Nordeste 0 975.1 0 21
2019-03-27 18:00:00 20.1 12 Nordeste 23 Este 0 974.8 -0.8 21
2019-03-27 17:00:00 20.4 13 Nordeste 26 Este 0 974.9 -1.4 19
2019-03-27 16:00:00 19.8 13 Este 29 Nordeste 0 975.1 -1.5 22
2019-03-27 15:00:00 19.3 13 Este 28 Este 0 975.6 -1.3 20
2019-03-27 14:00:00 18.5 13 Este 31 Este 0 976.3 -0.8 22
2019-03-27 13:00:00 17.7 15 Nordeste 36 Este 0 976.6 -0.2 23
2019-03-27 12:00:00 16.6 24 Este 32 Este 0 976.9 0.3 27
2019-03-27 11:00:00 14.6 23 Este 31 Este 0 977.1 1.1 37
2019-03-27 10:00:00 12.4 18 Este 26 Este 0 976.8 1.9 45
2019-03-27 09:00:00 9.9 4 Nordeste 12 Este 0 976.6 2.5 55
2019-03-27 08:00:00 7.9 10 Este 19 Este 0 976 2.6 61
2019-03-27 07:00:00 7.7 10 Sudeste 16 Sudeste 0 974.9 1.9 55
2019-03-27 06:00:00 8.1 4 Sudeste 14 Sudeste 0 974.1 1.2 53
2019-03-27 05:00:00 8 4 Sudeste 19 Este 0 973.4 0.9 55
2019-03-27 04:00:00 9.7 12 Sudeste 15 Este 0 973 1 47
2019-03-27 03:00:00 10.9 7 Este 16 Sudeste 0 972.9 1.5 43
2019-03-27 02:00:00 11.4 10 Sudeste 19 Sudeste 0 972.5 2 44
2019-03-27 01:00:00 13 12 Sudeste 19 Sudeste 0 972 1.9 39
2019-03-27 00:00:00 12.9 4 Este 21 Sudeste 0 971.4 1.8 39
2019-03-26 23:00:00 13.5 12 Sudeste 21 Sudeste 0 970.5 1.7 38
2019-03-26 22:00:00 15.3 9 Sudeste 20 Este 0 970.1 1.9 34
2019-03-26 21:00:00 16.6 10 Sudeste 15 Este 0 969.6 1.7 31
2019-03-26 20:00:00 17.3 6 Sudeste 25 Este 0 968.8 0.9 32
2019-03-26 19:00:00 21.3 14 Este 40 Nordeste 0 968.2 0.1 23
2019-03-26 18:00:00 22.2 21 Nordeste 39 Nordeste 0 967.9 -0.6 22
2019-03-26 17:00:00 22.5 20 Este 38 Nordeste 0 967.9 -1.3 22
2019-03-26 16:00:00 22.1 21 Nordeste 39 Nordeste 0 968.1 -1.7 23
2019-03-26 15:00:00 21.2 18 Nordeste 32 Nordeste 0 968.5 -2 25
2019-03-26 14:00:00 20.3 20 Este 36 Nordeste 0 969.2 -1.5 26
2019-03-26 13:00:00 18.9 19 Nordeste 34 Este 0 969.8 -0.8 29
2019-03-26 12:00:00 17.5 19 Este 41 Este 0 970.5 0 31
2019-03-26 11:00:00 16 14 Nordeste 31 Nordeste 0 970.7 0.3 33
2019-03-26 10:00:00 13.9 19 Nordeste 30 Nordeste 0 970.6 0.5 35
2019-03-26 09:00:00 11 7 Norte 13 Nordeste 0 970.5 0.5 41
2019-03-26 08:00:00 9.8 5 Norte 19 Este 0 970.4 0.4 40
2019-03-26 07:00:00 7.7 4 Nordeste 11 Nordeste 0 970.1 0.1 44
2019-03-26 06:00:00 8.9 4 Oeste 11 Sudoeste 0 970 -0.2 42
2019-03-26 05:00:00 11.1 9 Nordeste 22 Nordeste 0 970 -0.1 35
2019-03-26 04:00:00 8.5 3 Este 7 Sudeste 0 970 -0.4 51
2019-03-26 03:00:00 9.8 3 Sudeste 7 Nordeste 0 970.2 -0.1 52
2019-03-26 02:00:00 9.5 4 Oeste 8 Sudoeste 0 970.1 -0.4 53
2019-03-26 01:00:00 9.3 5 Sudoeste 9 Sudoeste 0 970.4 0.1 56
2019-03-26 00:00:00 10.4 5 Sudoeste 8 Sudoeste 0 970.3 0.4 53
2019-03-25 23:00:00 10.9 5 Sudoeste 8 Sudoeste 0 970.5 0.8 52
2019-03-25 22:00:00 12.9 7 Sudoeste 12 Oeste 0 970.3 0.5 48
2019-03-25 21:00:00 15 2 Sudeste 5 Noroeste 0 969.9 0.1 44
2019-03-25 20:00:00 17.5 4 Norte 16 Nordeste 0 969.7 -0.4 34
2019-03-25 19:00:00 20.9 12 Nordeste 30 Norte 0 969.8 -0.9 26
2019-03-25 18:00:00 22.7 17 Nordeste 33 Este 0 969.8 -1.7 18
2019-03-25 17:00:00 23.2 18 Nordeste 35 Nordeste 0 970.1 -2.4 15
2019-03-25 16:00:00 23.1 17 Nordeste 35 Nordeste 0 970.7 -2.8 17
2019-03-25 15:00:00 23.2 17 Este 33 Nordeste 0 971.5 -2.6 19
2019-03-25 14:00:00 22.6 15 Nordeste 30 Nordeste 0 972.5 -2.2 22
2019-03-25 13:00:00 21.7 15 Nordeste 32 Este 0 973.5 -1.4 23
2019-03-25 12:00:00 20.8 14 Nordeste 26 Norte 0 974.1 -0.6 24
2019-03-25 11:00:00 17.6 4 Nordeste 18 Este 0 974.7 0 41
2019-03-25 10:00:00 14.7 6 Este 10 Este 0 974.9 0.5 48
2019-03-25 09:00:00 12.5 3 Sudeste 5 Sudeste 0 974.7 0.3 54
2019-03-25 08:00:00 7.9 3 Noroeste 14 Sudeste 0 974.7 0.9 69
2019-03-25 07:00:00 8.4 7 Sudeste 11 Sur 0 974.4 0.6 64
2019-03-25 06:00:00 7.1 3 Oeste 8 Sur 0 974.4 0.1 75
2019-03-25 05:00:00 8.5 3 Sur 8 Sudoeste 0 973.8 -0.6 68
2019-03-25 04:00:00 9.3 5 Sudoeste 8 Sudoeste 0 973.8 -0.8 69
2019-03-25 03:00:00 9.2 5 Sur 8 Sudoeste 0 974.3 -0.1 68
2019-03-25 02:00:00 9.2 5 Sudoeste 8 Sudeste 0 974.4 -0.1 66
2019-03-25 01:00:00 10.2 6 Sur 8 Sur 0 974.6 0 63
2019-03-25 00:00:00 12 3 Oeste 12 Sudoeste 0 974.4 0.2 55